Time;durP1;ratioP1;P1;durP2;ratioP2;P2;SDS_P1;SDS_P2;PMS_P1;PMS_P2;Temp;Humidity;BMP_temperature;BMP_pressure;BME280_temperature;BME280_humidity;BME280_pressure;Samples;Min_cycle;Max_cycle;Signal;HPM_P1;HPM_P2
2022/05/21 10:14:03;;;;;;;167.38;154.77;;;26.80;55.10;;;;;;1052120;27;20352;-69
2022/05/21 10:14:41;;;;;;;74.72;68.72;;;26.40;58.40;;;;;;1050353;28;20040;-60
2022/05/21 10:15:21;;;;;;;67.85;62.03;;;26.20;58.20;;;;;;1050242;28;20051;-56
2022/05/21 10:15:57;;;;;;;71.25;65.45;;;26.10;60.60;;;;;;1044034;28;20048;-77
2022/05/21 10:16:36;;;;;;;78.72;72.18;;;26.00;62.30;;;;;;991852;28;20494;-74
2022/05/21 10:41:07;;;;;;;74.63;68.82;;;20.80;67.60;;;;;;1055643;27;20389;-80
2022/05/21 10:42:13;;;;;;;74.10;68.22;;;20.50;66.30;;;;;;1050953;28;20044;-80
2022/05/21 10:43:04;;;;;;;93.53;85.00;;;20.40;66.00;;;;;;983724;28;20128;-79
2022/05/21 10:44:14;;;;;;;71.50;65.75;;;20.40;68.60;;;;;;1037173;28;20436;-79
2022/05/21 10:45:01;;;;;;;72.20;66.32;;;20.40;65.10;;;;;;970754;28;20426;-78
2022/05/21 10:45:35;;;;;;;72.47;66.57;;;20.50;64.60;;;;;;1038847;28;124488;-78
2022/05/21 10:46:19;;;;;;;73.18;67.18;;;20.50;65.70;;;;;;1039564;28;20122;-79
2022/05/21 10:51:37;;;;;;;71.82;65.45;;;20.50;64.30;;;;;;10414678;27;20424;-79
2022/05/21 10:56:49;;;;;;;72.13;65.90;;;20.40;64.10;;;;;;10484091;28;20063;-78
2022/05/21 11:01:59;;;;;;;70.85;64.65;;;20.40;65.40;;;;;;10484536;28;20052;-80
2022/05/21 11:07:36;;;;;;;73.57;66.95;;;20.50;67.00;;;;;;10484489;28;20064;-78
2022/05/21 11:12:55;;;;;;;71.57;65.38;;;20.80;64.90;;;;;;10485726;28;20048;-79
2022/05/21 11:18:02;;;;;;;71.32;65.13;;;20.90;65.40;;;;;;10486772;28;20048;-81
2022/05/21 11:23:10;;;;;;;71.55;65.30;;;20.80;64.00;;;;;;10486566;28;20052;-79
2022/05/21 11:28:27;;;;;;;72.15;65.75;;;20.90;62.80;;;;;;10486291;28;20055;-85
2022/05/21 11:38:53;;;;;;;;;;;21.20;62.40;;;;;;10487716;28;20045;-83
2022/05/21 11:49:39;;;;;;;70.82;64.72;;;21.20;63.10;;;;;;10485805;28;20091;-83
2022/05/21 11:55:00;;;;;;;71.43;65.07;;;21.40;60.70;;;;;;10481451;28;20068;-84
2022/05/21 12:00:06;;;;;;;71.82;65.63;;;21.30;60.40;;;;;;10457470;28;20049;-84
2022/05/21 12:05:10;;;;;;;71.43;65.32;;;21.50;60.10;;;;;;10452329;28;20045;-84
2022/05/21 12:10:14;;;;;;;73.80;67.32;;;21.70;61.10;;;;;;10444409;28;20815;-80
2022/05/21 12:15:20;;;;;;;73.97;67.50;;;21.90;59.80;;;;;;10450856;28;20053;-83
2022/05/21 12:20:44;;;;;;;74.55;67.97;;;22.00;61.20;;;;;;10449666;28;20533;-82
2022/05/21 12:26:08;;;;;;;75.63;68.93;;;22.10;59.10;;;;;;10447726;28;20060;-81
2022/05/21 12:31:19;;;;;;;79.07;71.82;;;22.60;59.50;;;;;;10450302;28;20059;-80
2022/05/21 12:36:41;;;;;;;80.88;73.55;;;22.90;61.50;;;;;;10451704;28;20055;-80
2022/05/21 12:41:47;;;;;;;78.45;71.30;;;23.20;61.60;;;;;;10451541;28;20060;-80
2022/05/21 12:46:52;;;;;;;77.72;70.72;;;23.30;61.50;;;;;;10451210;28;20063;-79
2022/05/21 12:51:54;;;;;;;78.85;71.75;;;23.50;60.00;;;;;;10446729;28;20045;-80
2022/05/21 12:56:59;;;;;;;80.43;72.93;;;23.60;61.20;;;;;;10447360;28;20056;-80
2022/05/21 13:02:14;;;;;;;84.10;76.15;;;23.80;61.30;;;;;;10446894;28;20596;-80
2022/05/21 13:07:21;;;;;;;87.78;79.35;;;24.20;60.50;;;;;;10442445;28;20056;-80
2022/05/21 13:12:24;;;;;;;83.95;76.20;;;24.40;60.50;;;;;;10448100;28;20053;-80
2022/05/21 13:17:35;;;;;;;83.55;75.95;;;24.60;57.10;;;;;;10445525;28;20052;-80
2022/05/21 13:23:06;;;;;;;84.82;77.13;;;24.60;59.30;;;;;;10447804;28;20052;-82
2022/05/21 13:28:15;;;;;;;87.03;78.72;;;24.90;57.90;;;;;;10447791;28;20048;-81
2022/05/21 13:33:31;;;;;;;89.15;80.30;;;25.10;57.50;;;;;;10442116;28;20449;-80
2022/05/21 13:38:36;;;;;;;86.03;78.03;;;25.30;56.20;;;;;;10448939;28;20060;-79
2022/05/21 13:43:43;;;;;;;94.00;84.93;;;25.50;56.20;;;;;;10446523;28;20056;-80
2022/05/21 13:48:50;;;;;;;89.63;81.05;;;26.00;52.90;;;;;;10443406;28;20057;-81
2022/05/21 13:53:54;;;;;;;91.72;83.13;;;26.30;52.60;;;;;;10448737;28;20499;-81
2022/05/21 13:59:15;;;;;;;94.47;85.72;;;26.60;52.50;;;;;;10450125;28;20044;-79
2022/05/21 14:04:34;;;;;;;94.10;85.47;;;26.90;53.60;;;;;;10438417;28;20051;-81
2022/05/21 14:09:36;;;;;;;95.72;87.10;;;27.40;52.20;;;;;;10441645;28;20045;-80
2022/05/21 14:14:39;;;;;;;;;;;26.90;52.00;;;;;;10446158;28;20048;-83
2022/05/21 14:20:02;;;;;;;88.78;80.97;;;27.10;51.60;;;;;;10445172;28;19929;-81
2022/05/21 14:25:25;;;;;;;92.55;84.43;;;27.70;50.30;;;;;;10442985;28;20052;-81
2022/05/21 14:30:36;;;;;;;99.25;90.25;;;28.20;50.10;;;;;;10440040;28;20052;-82
2022/05/21 14:35:39;;;;;;;104.43;95.30;;;28.70;49.20;;;;;;10435387;28;20053;-82
2022/05/21 14:40:48;;;;;;;104.07;95.00;;;29.30;47.20;;;;;;10438851;28;20099;-81
2022/05/21 14:45:50;;;;;;;109.72;100.22;;;29.70;47.00;;;;;;10446594;28;20064;-82
2022/05/21 14:56:25;;;;;;;90.30;82.60;;;29.50;46.90;;;;;;10449779;28;20053;-80
2022/05/21 15:01:29;;;;;;;87.60;80.40;;;29.00;46.70;;;;;;10444688;28;20041;-81
2022/05/21 15:06:35;;;;;;;87.53;80.13;;;29.90;46.60;;;;;;10446506;28;20081;-81
2022/05/21 15:11:37;;;;;;;86.47;79.40;;;30.60;44.50;;;;;;10445293;28;20040;-80
2022/05/21 15:16:39;;;;;;;87.10;79.50;;;30.80;45.70;;;;;;10444777;28;20380;-80
2022/05/21 15:21:45;;;;;;;88.75;81.00;;;30.10;46.00;;;;;;10443672;28;20057;-80
2022/05/21 15:26:47;;;;;;;87.68;80.18;;;29.30;45.60;;;;;;10444380;28;20061;-77
2022/05/21 15:31:49;;;;;;;88.28;80.28;;;28.70;46.20;;;;;;10444431;28;20057;-79
2022/05/21 15:36:53;;;;;;;87.95;79.78;;;27.50;47.70;;;;;;10448747;28;20275;-79
2022/05/21 15:41:56;;;;;;;86.70;78.88;;;27.30;49.00;;;;;;10452072;28;20053;-79
2022/05/21 15:47:01;;;;;;;87.95;79.63;;;26.90;49.60;;;;;;10450039;28;20048;-82
2022/05/21 15:52:05;;;;;;;87.32;79.28;;;26.70;50.00;;;;;;10447885;28;20084;-81
2022/05/21 15:57:07;;;;;;;90.13;81.18;;;26.60;50.20;;;;;;10450411;28;20515;-80
2022/05/21 16:02:15;;;;;;;90.75;82.28;;;26.00;51.00;;;;;;10445826;28;20045;-81
2022/05/21 16:07:19;;;;;;;90.60;81.88;;;25.90;50.90;;;;;;10440636;28;20056;-81
2022/05/21 16:12:22;;;;;;;90.88;82.18;;;26.50;51.30;;;;;;10425431;28;20052;-81
2022/05/21 16:17:25;;;;;;;87.07;78.88;;;26.40;50.30;;;;;;10446544;28;20071;-80
2022/05/21 16:22:29;;;;;;;86.45;78.20;;;26.10;50.50;;;;;;10445919;28;20076;-81
2022/05/21 16:27:32;;;;;;;86.50;78.30;;;25.80;51.00;;;;;;10441569;28;20443;-81
2022/05/21 16:32:34;;;;;;;;;;;25.90;51.50;;;;;;10444850;28;20049;-82
2022/05/21 16:37:38;;;;;;;87.25;79.22;;;26.70;50.10;;;;;;10440533;28;19931;-81
2022/05/21 16:42:39;;;;;;;88.47;80.38;;;26.80;50.00;;;;;;10451948;28;20040;-81
2022/05/21 16:47:41;;;;;;;92.55;83.75;;;27.40;49.50;;;;;;10450126;28;20048;-81
2022/05/21 16:52:45;;;;;;;88.75;80.68;;;27.40;49.30;;;;;;10448798;28;20041;-79
2022/05/21 16:57:47;;;;;;;89.45;81.20;;;27.50;49.10;;;;;;10449853;28;20080;-76
2022/05/21 17:02:48;;;;;;;;;;;27.80;48.70;;;;;;10446129;28;20672;-77
2022/05/21 17:07:52;;;;;;;87.07;79.18;;;27.30;48.40;;;;;;10440043;28;19921;-85
2022/05/21 17:12:54;;;;;;;89.32;81.07;;;27.80;48.10;;;;;;10451344;28;20052;-82
2022/05/21 17:17:56;;;;;;;88.68;80.28;;;27.30;48.70;;;;;;10448726;28;20049;-79
2022/05/21 17:22:59;;;;;;;87.38;79.45;;;26.90;50.10;;;;;;10450987;28;20052;-82
2022/05/21 17:33:21;;;;;;;87.90;79.72;;;26.40;50.20;;;;;;10453535;28;20048;-81
2022/05/21 17:38:26;;;;;;;84.78;76.93;;;25.80;51.80;;;;;;10451269;28;20041;-83
2022/05/21 17:43:28;;;;;;;89.60;81.10;;;25.60;51.40;;;;;;10444682;28;20051;-81
2022/05/21 17:48:31;;;;;;;87.22;78.90;;;25.40;51.50;;;;;;10447938;28;20083;-81
2022/05/21 17:53:34;;;;;;;86.93;78.53;;;25.30;51.90;;;;;;10447173;28;20049;-81
2022/05/21 17:58:36;;;;;;;87.15;78.65;;;25.00;52.20;;;;;;10447031;28;20048;-80
2022/05/21 18:03:38;;;;;;;85.68;77.15;;;24.80;54.40;;;;;;10445009;28;20048;-81
2022/05/21 18:08:41;;;;;;;86.00;77.60;;;24.80;53.90;;;;;;10446832;28;20143;-81
2022/05/21 18:13:43;;;;;;;88.63;79.72;;;24.60;55.70;;;;;;10447940;28;20041;-81
2022/05/21 18:24:07;;;;;;;87.45;78.75;;;24.20;56.00;;;;;;10445679;28;20135;-82
2022/05/21 18:29:09;;;;;;;87.60;78.72;;;23.90;57.50;;;;;;10446472;28;20060;-81
2022/05/21 18:34:11;;;;;;;88.28;79.38;;;23.80;57.80;;;;;;10444083;28;20410;-82
2022/05/21 18:39:15;;;;;;;88.35;79.53;;;23.80;57.70;;;;;;10433922;28;20675;-81
2022/05/21 18:44:18;;;;;;;89.53;80.50;;;23.70;58.00;;;;;;10432675;28;20040;-79
2022/05/21 18:49:20;;;;;;;88.47;79.45;;;23.50;58.60;;;;;;10447189;28;20065;-81
2022/05/21 18:54:23;;;;;;;88.40;79.32;;;23.40;58.50;;;;;;10447585;28;21636;-81
2022/05/21 18:59:27;;;;;;;90.18;80.60;;;23.20;60.30;;;;;;10437050;28;20059;-81
2022/05/21 19:04:30;;;;;;;86.88;77.80;;;23.00;60.60;;;;;;10446239;28;20049;-84
2022/05/21 19:09:33;;;;;;;86.93;77.73;;;22.60;62.20;;;;;;10437603;28;20051;-83
2022/05/21 19:14:35;;;;;;;93.63;83.75;;;22.50;62.20;;;;;;10452352;28;20041;-84
2022/05/21 19:19:37;;;;;;;88.22;79.03;;;22.30;63.60;;;;;;10446521;28;20041;-84
2022/05/21 19:24:41;;;;;;;86.43;77.50;;;22.20;63.50;;;;;;10451919;28;20041;-85
2022/05/21 19:29:45;;;;;;;85.60;76.65;;;21.90;64.60;;;;;;10450901;28;20502;-82
2022/05/21 19:34:48;;;;;;;83.90;74.80;;;21.70;64.80;;;;;;10455989;28;20128;-82
2022/05/21 19:45:11;;;;;;;83.97;74.93;;;21.30;68.80;;;;;;10460838;28;20124;-86
2022/05/21 19:50:13;;;;;;;83.47;74.72;;;21.10;68.80;;;;;;10471632;28;20505;-84
2022/05/21 19:55:17;;;;;;;81.95;73.38;;;21.00;69.80;;;;;;10465740;28;20049;-83
2022/05/21 20:00:21;;;;;;;84.18;75.35;;;20.80;70.70;;;;;;10472229;28;20052;-84
2022/05/21 20:05:23;;;;;;;81.63;73.13;;;20.80;70.70;;;;;;10447837;28;20060;-85
2022/05/21 20:10:27;;;;;;;82.45;73.60;;;20.70;70.40;;;;;;10462267;28;20045;-84
2022/05/21 20:15:29;;;;;;;82.60;73.05;;;20.60;74.20;;;;;;10461913;28;20044;-84
2022/05/21 20:20:31;;;;;;;80.75;72.07;;;20.30;74.80;;;;;;10445325;28;20071;-83
2022/05/21 20:25:35;;;;;;;81.30;72.57;;;20.10;76.10;;;;;;10443621;28;20041;-83
2022/05/21 20:30:37;;;;;;;80.67;71.90;;;19.90;77.10;;;;;;10460615;28;20045;-85
2022/05/21 20:35:39;;;;;;;81.18;72.55;;;19.60;78.00;;;;;;10461047;28;20045;-84
2022/05/21 20:40:43;;;;;;;81.47;72.68;;;19.40;80.60;;;;;;10460386;28;20041;-84
2022/05/21 20:45:45;;;;;;;84.15;72.32;;;19.10;82.90;;;;;;10451359;28;20487;-84
2022/05/21 20:50:47;;;;;;;84.45;73.35;;;18.50;85.40;;;;;;10460013;28;20079;-85
2022/05/21 20:55:50;;;;;;;82.22;73.15;;;18.70;86.00;;;;;;10475737;28;20044;-84
2022/05/21 21:00:53;;;;;;;106.63;89.45;;;18.80;86.50;;;;;;10459957;28;20414;-84
2022/05/21 21:05:55;;;;;;;89.50;78.57;;;18.80;86.70;;;;;;10460156;28;20090;-87
2022/05/21 21:10:59;;;;;;;86.15;74.43;;;18.80;86.00;;;;;;10445125;28;20049;-87
2022/05/21 21:16:01;;;;;;;83.20;72.75;;;18.90;85.70;;;;;;10460277;28;20490;-88
2022/05/21 21:21:03;;;;;;;83.72;73.55;;;18.60;86.30;;;;;;10460561;28;20440;-87
2022/05/21 21:26:06;;;;;;;82.43;72.32;;;18.30;87.60;;;;;;10460539;28;20049;-88
2022/05/21 21:31:08;;;;;;;84.13;72.95;;;18.40;88.10;;;;;;10457729;28;20486;-87
2022/05/21 21:36:10;;;;;;;84.15;72.47;;;18.30;87.90;;;;;;10459186;28;20049;-88
2022/05/21 21:41:15;;;;;;;84.00;71.90;;;17.90;89.80;;;;;;10458605;28;20487;-86
2022/05/21 21:46:17;;;;;;;80.63;71.68;;;18.00;90.10;;;;;;10444562;28;20044;-88
2022/05/21 21:51:19;;;;;;;82.28;72.38;;;18.10;90.00;;;;;;10457673;28;20510;-86
2022/05/21 21:56:23;;;;;;;80.60;71.75;;;17.90;90.30;;;;;;10458407;28;20048;-88
2022/05/21 22:01:35;;;;;;;85.78;71.22;;;17.80;90.40;;;;;;10458594;28;20055;-87
2022/05/21 22:06:37;;;;;;;81.30;71.00;;;17.70;90.70;;;;;;10458445;28;20471;-87
2022/05/21 22:11:41;;;;;;;81.43;71.43;;;17.60;91.00;;;;;;10471417;28;20049;-88
2022/05/21 22:16:44;;;;;;;79.53;70.82;;;17.50;91.40;;;;;;10442434;28;20591;-87
2022/05/21 22:21:48;;;;;;;81.10;70.85;;;17.50;91.30;;;;;;10457898;28;20372;-87
2022/05/21 22:26:53;;;;;;;80.78;71.43;;;17.50;91.30;;;;;;10457956;28;20491;-88
2022/05/21 22:31:55;;;;;;;85.80;72.25;;;17.40;91.30;;;;;;10457507;28;20049;-87
2022/05/21 22:36:57;;;;;;;84.28;71.68;;;16.70;92.10;;;;;;10441481;28;20040;-88
2022/05/21 22:42:00;;;;;;;85.75;72.40;;;16.70;92.50;;;;;;10473039;28;20052;-88
2022/05/21 22:47:02;;;;;;;82.90;71.90;;;16.70;92.70;;;;;;10456956;28;20075;-89
2022/05/21 22:52:04;;;;;;;84.15;71.70;;;16.90;92.50;;;;;;10456367;28;20087;-88
2022/05/21 22:57:08;;;;;;;84.80;71.65;;;16.90;92.40;;;;;;10472704;28;20049;-89
2022/05/21 23:02:10;;;;;;;85.07;72.00;;;16.90;92.20;;;;;;10459057;28;20053;-88
2022/05/21 23:07:12;;;;;;;84.68;71.53;;;16.50;92.60;;;;;;10472277;28;20049;-88
2022/05/21 23:12:15;;;;;;;86.53;72.63;;;16.20;93.20;;;;;;10454454;28;20057;-87
2022/05/21 23:22:37;;;;;;;83.90;71.00;;;16.10;93.80;;;;;;10456657;28;20073;-87
2022/05/21 23:27:41;;;;;;;82.55;70.85;;;16.20;93.60;;;;;;10445229;28;20041;-87
2022/05/21 23:32:43;;;;;;;84.32;70.75;;;16.10;93.60;;;;;;10455384;28;20505;-85
2022/05/21 23:37:45;;;;;;;85.38;71.13;;;16.20;93.50;;;;;;10441895;28;20045;-88
2022/05/21 23:42:49;;;;;;;83.90;71.18;;;15.60;94.00;;;;;;10455095;28;20057;-87
2022/05/21 23:47:51;;;;;;;85.97;72.75;;;15.50;94.60;;;;;;10439010;28;20056;-87
2022/05/21 23:52:54;;;;;;;97.13;77.30;;;15.60;94.70;;;;;;10471376;28;20049;-88
2022/05/21 23:57:57;;;;;;;87.90;73.65;;;15.70;94.70;;;;;;10445395;28;20045;-87
